Time;durP1;ratioP1;P1;durP2;ratioP2;P2;SDS_P1;SDS_P2;PMS_P1;PMS_P2;Temp;Humidity;BMP_temperature;BMP_pressure;BME280_temperature;BME280_humidity;BME280_pressure;Samples;Min_cycle;Max_cycle;Signal;HPM_P1;HPM_P2
2022/05/01 00:01:20;;;;;;;7.93;4.88;;;17.20;77.20;;;;;;5103145;27;20035;-63
2022/05/01 00:03:46;;;;;;;8.35;4.75;;;17.20;80.10;;;;;;5118755;27;20043;-62
2022/05/01 00:06:13;;;;;;;6.82;4.90;;;;;;;;;;5118935;27;20027;-62
2022/05/01 00:08:40;;;;;;;8.73;5.18;;;17.30;80.10;;;;;;5102554;28;20043;-62
2022/05/01 00:11:08;;;;;;;8.20;4.90;;;16.90;80.00;;;;;;5097790;28;20043;-63
2022/05/01 00:13:35;;;;;;;7.85;5.13;;;17.30;80.10;;;;;;5097935;28;20051;-63
2022/05/01 00:16:04;;;;;;;8.10;5.05;;;16.90;77.10;;;;;;5097667;28;20040;-62
2022/05/01 00:18:30;;;;;;;8.48;4.88;;;17.10;79.90;;;;;;5117507;27;20039;-64
2022/05/01 00:20:56;;;;;;;8.07;5.55;;;17.00;79.80;;;;;;5080645;28;20503;-62
2022/05/01 00:23:26;;;;;;;7.50;5.00;;;17.10;77.20;;;;;;5098164;28;20050;-62
2022/05/01 00:25:52;;;;;;;8.27;5.03;;;17.10;79.90;;;;;;5098439;28;20421;-62
2022/05/01 00:28:24;;;;;;;8.50;5.75;;;16.90;79.70;;;;;;5082344;27;20044;-62
2022/05/01 00:30:52;;;;;;;8.00;5.22;;;17.20;79.80;;;;;;5074066;28;20209;-62
2022/05/01 00:45:38;;;;;;;6.93;4.78;;;16.90;79.80;;;;;;5115569;28;20066;-63
2022/05/01 00:48:08;;;;;;;7.85;5.10;;;17.00;79.70;;;;;;5097526;28;20050;-62
2022/05/01 00:50:41;;;;;;;7.43;4.65;;;16.90;79.50;;;;;;5107728;28;20435;-63
2022/05/01 00:57:07;;;;;;;6.35;4.68;;;17.10;79.70;;;;;;5032770;28;20049;-65
2022/05/01 00:59:52;;;;;;;7.32;5.25;;;17.10;79.50;;;;;;5031762;28;20049;-65
2022/05/01 01:02:58;;;;;;;8.55;5.20;;;16.70;79.20;;;;;;5034348;28;20045;-65
2022/05/01 01:05:45;;;;;;;8.38;5.32;;;16.80;79.30;;;;;;5051358;28;20055;-66
2022/05/01 01:08:29;;;;;;;8.55;5.38;;;17.10;79.60;;;;;;5052651;28;20388;-66
2022/05/01 01:11:19;;;;;;;7.90;5.22;;;17.00;79.40;;;;;;5036263;28;20168;-65
2022/05/01 01:14:06;;;;;;;8.48;4.95;;;17.00;79.30;;;;;;5034666;28;20151;-65
2022/05/01 01:16:58;;;;;;;8.00;5.40;;;17.00;79.30;;;;;;5017964;28;20605;-66
2022/05/01 01:19:39;;;;;;;7.25;5.28;;;17.20;79.60;;;;;;5037059;28;20049;-66
2022/05/01 01:22:24;;;;;;;8.68;5.10;;;16.90;79.40;;;;;;5051401;28;20040;-65
2022/05/01 01:25:32;;;;;;;8.57;5.35;;;17.10;75.20;;;;;;5017693;28;20090;-65
2022/05/01 01:28:14;;;;;;;7.35;5.28;;;16.80;79.50;;;;;;5032370;28;20053;-65
2022/05/01 01:38:26;;;;;;;8.30;5.63;;;17.00;79.30;;;;;;5128043;27;20434;-65
2022/05/01 01:41:21;;;;;;;7.77;5.70;;;16.80;79.20;;;;;;5111782;27;20043;-65
2022/05/01 01:43:57;;;;;;;8.00;6.15;;;16.90;79.50;;;;;;5094381;28;20685;-66
2022/05/01 01:49:49;;;;;;;8.07;5.53;;;16.90;79.20;;;;;;5085280;28;20074;-66
2022/05/01 01:52:34;;;;;;;7.85;5.35;;;16.90;79.30;;;;;;5092867;28;20051;-65
2022/05/01 01:55:31;;;;;;;8.30;5.40;;;16.70;76.40;;;;;;5094179;28;20044;-66
2022/05/01 01:58:18;;;;;;;8.77;6.05;;;16.70;76.30;;;;;;5093755;28;20460;-66
2022/05/01 02:00:53;;;;;;;8.82;5.63;;;16.80;79.00;;;;;;5039692;28;20061;-66
2022/05/01 02:11:12;;;;;;;8.65;5.50;;;17.00;79.10;;;;;;5093723;28;20401;-65
2022/05/01 02:14:20;;;;;;;8.68;5.68;;;16.90;79.10;;;;;;5084572;28;20379;-66
2022/05/01 02:17:28;;;;;;;8.75;5.55;;;16.90;76.40;;;;;;5082287;28;20045;-65
2022/05/01 02:39:09;;;;;;;7.43;5.22;;;16.50;76.10;;;;;;5036688;28;20044;-66
2022/05/01 02:51:01;;;;;;;;;;;;;;;;;;;;;
2022/05/01 02:54:59;;;;;;;8.90;5.97;;;16.40;78.60;;;;;;5050396;28;20044;-63
2022/05/01 02:57:27;;;;;;;8.52;6.03;;;16.60;76.00;;;;;;5030616;28;20045;-63
2022/05/01 03:04:26;;;;;;;7.97;5.70;;;16.30;74.40;;;;;;5035746;28;20191;-63
2022/05/01 03:11:19;;;;;;;7.38;5.25;;;16.30;75.80;;;;;;5045355;28;20067;-63
2022/05/01 03:14:22;;;;;;;7.18;5.22;;;16.60;74.50;;;;;;5036290;28;20053;-63
2022/05/01 03:16:58;;;;;;;7.60;5.10;;;16.50;78.80;;;;;;5097368;28;20101;-63
2022/05/01 03:22:29;;;;;;;8.07;4.47;;;;;;;;;;5097300;28;20051;-63
2022/05/01 03:25:14;;;;;;;6.00;4.28;;;16.50;78.50;;;;;;5078953;28;20497;-63
2022/05/01 03:27:56;;;;;;;6.60;4.63;;;16.30;78.40;;;;;;5078617;28;20048;-62
2022/05/01 03:30:44;;;;;;;6.20;4.35;;;16.70;74.30;;;;;;5095291;28;20407;-63
2022/05/01 03:33:26;;;;;;;6.13;4.60;;;16.50;74.20;;;;;;5078905;28;20048;-63
2022/05/01 03:36:14;;;;;;;6.47;4.70;;;16.40;78.40;;;;;;5061965;28;20491;-63
2022/05/01 03:38:59;;;;;;;5.97;4.40;;;16.20;78.20;;;;;;5096319;28;20123;-65
2022/05/01 03:48:35;;;;;;;6.95;4.70;;;16.40;74.10;;;;;;5108929;28;20417;-64
2022/05/01 03:51:34;;;;;;;6.32;4.70;;;16.40;78.20;;;;;;5076587;28;20052;-62
2022/05/01 03:54:51;;;;;;;6.20;4.30;;;16.50;78.30;;;;;;5101676;28;20036;-63
2022/05/01 03:57:19;;;;;;;5.97;4.18;;;16.60;78.30;;;;;;5115332;28;20122;-63
2022/05/01 04:00:04;;;;;;;5.80;4.13;;;;;;;;;;5097798;28;20523;-65
2022/05/01 04:02:53;;;;;;;6.20;4.32;;;16.30;78.20;;;;;;5103687;28;20052;-64
2022/05/01 04:05:34;;;;;;;6.47;4.45;;;16.30;78.30;;;;;;5103133;28;20039;-63
2022/05/01 04:15:44;;;;;;;6.53;4.68;;;16.50;74.10;;;;;;5054138;28;20127;-64
2022/05/01 04:18:34;;;;;;;5.60;4.03;;;16.40;73.90;;;;;;5035625;28;20088;-63
2022/05/01 04:32:32;;;;;;;6.50;4.57;;;16.30;77.80;;;;;;5072739;28;20039;-62
2022/05/01 04:45:17;;;;;;;7.00;4.18;;;16.70;77.90;;;;;;5064140;28;20119;-67
2022/05/01 04:48:17;;;;;;;5.32;3.97;;;16.60;73.20;;;;;;5055770;28;20416;-64
2022/05/01 04:55:30;;;;;;;5.57;4.07;;;16.70;73.20;;;;;;4833882;28;7751283;-64
2022/05/01 05:21:10;;;;;;;16.67;6.65;;;17.10;76.00;;;;;;5022922;28;20581;-64
2022/05/01 05:23:49;;;;;;;11.80;5.40;;;17.10;75.80;;;;;;5024196;28;20053;-65
2022/05/01 05:26:54;;;;;;;15.18;5.25;;;17.40;75.80;;;;;;5010268;28;20049;-66
2022/05/01 05:29:28;;;;;;;13.48;5.00;;;17.40;75.60;;;;;;4988957;28;20046;-65
2022/05/01 05:32:07;;;;;;;10.75;4.65;;;17.50;75.50;;;;;;4995340;28;20050;-65
2022/05/01 05:34:41;;;;;;;12.30;4.93;;;17.30;75.30;;;;;;4994033;28;20056;-64
2022/05/01 05:37:06;;;;;;;;;;;17.60;72.30;;;;;;5022686;28;20136;-67
2022/05/01 05:39:32;;;;;;;9.80;4.28;;;17.80;75.20;;;;;;5020564;28;20000;-65
2022/05/01 05:41:59;;;;;;;9.02;4.57;;;18.10;75.40;;;;;;5059618;27;20385;-68
2022/05/01 05:44:25;;;;;;;8.50;4.60;;;17.90;75.00;;;;;;5127401;27;20096;-67
2022/05/01 05:46:52;;;;;;;7.50;4.60;;;17.90;74.90;;;;;;5115556;27;20065;-65
2022/05/01 05:49:18;;;;;;;6.88;4.47;;;18.10;74.90;;;;;;5115451;27;20128;-66
2022/05/01 05:51:44;;;;;;;7.57;4.43;;;17.70;74.60;;;;;;5100412;27;20065;-66
2022/05/01 05:54:09;;;;;;;6.72;4.47;;;18.30;74.90;;;;;;5106352;27;20043;-66
2022/05/01 05:56:35;;;;;;;9.43;4.95;;;18.30;74.80;;;;;;5106815;27;20421;-65
2022/05/01 05:59:01;;;;;;;7.35;4.50;;;18.50;74.80;;;;;;5108858;27;20499;-65
2022/05/01 06:01:27;;;;;;;6.80;4.75;;;;;;;;;;5117974;27;20453;-64
2022/05/01 06:03:56;;;;;;;7.70;4.63;;;18.50;74.70;;;;;;5099939;28;20054;-69
2022/05/01 06:06:24;;;;;;;6.82;4.80;;;18.20;71.30;;;;;;5088437;27;20571;-64
2022/05/01 06:08:49;;;;;;;7.70;5.07;;;18.90;74.70;;;;;;5129118;27;20123;-66
2022/05/01 06:11:15;;;;;;;6.72;4.90;;;18.70;74.60;;;;;;5130445;27;20121;-66
2022/05/01 06:13:41;;;;;;;8.82;5.10;;;;;;;;;;5109244;27;20656;-64
2022/05/01 06:16:08;;;;;;;7.20;5.00;;;;;;;;;;5122103;27;20059;-66
2022/05/01 06:18:33;;;;;;;7.03;5.15;;;19.10;74.80;;;;;;5100149;28;20055;-66
2022/05/01 06:20:59;;;;;;;6.82;4.93;;;;;;;;;;5116254;27;20039;-64
2022/05/01 06:23:25;;;;;;;7.75;4.90;;;19.00;71.00;;;;;;5107231;28;20128;-64
2022/05/01 06:25:51;;;;;;;7.50;4.68;;;19.00;74.80;;;;;;5089921;28;20071;-65
2022/05/01 06:28:17;;;;;;;8.15;4.85;;;;;;;;;;5118640;27;20042;-66
2022/05/01 06:30:48;;;;;;;7.85;5.00;;;18.70;74.70;;;;;;5103506;28;20051;-66
2022/05/01 06:33:16;;;;;;;7.03;4.70;;;19.00;75.00;;;;;;5102931;28;20040;-66
2022/05/01 06:35:42;;;;;;;6.97;4.82;;;19.10;74.90;;;;;;5098143;28;20039;-69
2022/05/01 06:38:08;;;;;;;6.90;4.88;;;19.10;74.60;;;;;;5100689;28;20493;-66
2022/05/01 06:40:35;;;;;;;9.10;5.22;;;19.20;75.00;;;;;;5129898;28;20053;-65
2022/05/01 06:43:01;;;;;;;9.23;5.90;;;;;;;;;;5109680;28;20119;-65
2022/05/01 06:45:27;;;;;;;7.15;4.82;;;19.20;75.00;;;;;;5127605;28;20548;-70
2022/05/01 06:47:53;;;;;;;9.57;5.72;;;19.40;75.00;;;;;;5107063;28;20114;-64
2022/05/01 06:50:20;;;;;;;9.50;6.03;;;19.30;74.90;;;;;;5119848;28;20028;-68
2022/05/01 06:52:46;;;;;;;8.57;5.93;;;;;;;;;;5097146;28;20059;-65
2022/05/01 06:55:14;;;;;;;7.43;5.15;;;;;;;;;;5119332;28;20453;-68
2022/05/01 06:57:39;;;;;;;8.05;5.57;;;19.50;75.00;;;;;;5087650;28;20040;-62
2022/05/01 07:00:06;;;;;;;8.82;5.22;;;19.40;74.90;;;;;;5099457;28;20039;-64
2022/05/01 07:02:32;;;;;;;8.25;5.15;;;;;;;;;;5099094;28;20044;-65
2022/05/01 07:04:58;;;;;;;7.15;4.93;;;19.30;74.50;;;;;;5117616;28;20035;-68
2022/05/01 07:07:24;;;;;;;7.43;5.05;;;;;;;;;;5101948;28;20120;-66
2022/05/01 07:09:53;;;;;;;8.45;5.07;;;19.70;74.70;;;;;;5123369;28;20046;-65
2022/05/01 07:12:19;;;;;;;8.68;5.40;;;;;;;;;;5104779;28;20039;-68
2022/05/01 07:14:45;;;;;;;8.15;5.70;;;19.80;73.00;;;;;;5119316;28;20539;-65
2022/05/01 07:17:11;;;;;;;8.98;5.50;;;19.90;74.50;;;;;;5115838;28;20040;-65
2022/05/01 07:19:37;;;;;;;7.85;5.45;;;19.90;74.30;;;;;;5110180;27;20050;-66
2022/05/01 07:22:03;;;;;;;8.63;6.10;;;19.70;74.20;;;;;;5110287;27;20054;-65
2022/05/01 07:24:29;;;;;;;10.13;5.60;;;;;;;;;;5109240;27;20055;-65
2022/05/01 07:26:55;;;;;;;8.10;6.00;;;20.00;74.40;;;;;;5125082;27;20051;-66
2022/05/01 07:29:21;;;;;;;8.20;5.82;;;19.80;74.30;;;;;;5123562;27;20043;-66
2022/05/01 07:31:46;;;;;;;8.68;5.95;;;19.70;74.40;;;;;;5128644;27;20046;-64
2022/05/01 07:34:12;;;;;;;7.88;5.82;;;19.70;74.40;;;;;;5126559;27;20398;-64
2022/05/01 07:36:38;;;;;;;6.70;5.28;;;19.50;74.30;;;;;;5126467;27;20115;-64
2022/05/01 07:39:04;;;;;;;8.60;5.43;;;19.40;74.00;;;;;;5123388;27;20477;-63
2022/05/01 07:41:29;;;;;;;8.75;5.82;;;19.80;74.30;;;;;;5131188;27;20043;-68
2022/05/01 07:43:56;;;;;;;8.80;5.93;;;;;;;;;;5133138;27;20054;-67
2022/05/01 07:46:22;;;;;;;9.35;6.35;;;19.80;74.20;;;;;;5122362;27;20031;-66
2022/05/01 07:48:48;;;;;;;9.43;5.72;;;19.90;74.20;;;;;;5105873;27;20049;-65
2022/05/01 07:51:18;;;;;;;8.82;5.55;;;19.90;74.30;;;;;;5125132;27;20043;-64
2022/05/01 07:53:44;;;;;;;8.27;5.90;;;20.00;74.20;;;;;;5124544;27;20480;-64
2022/05/01 07:56:11;;;;;;;9.02;6.53;;;20.00;74.20;;;;;;5100057;27;20043;-64
2022/05/01 07:58:37;;;;;;;9.50;6.25;;;20.00;72.80;;;;;;5125219;27;20046;-66
2022/05/01 08:01:04;;;;;;;11.00;6.72;;;20.00;74.00;;;;;;5123609;27;20494;-68
2022/05/01 08:06:14;;;;;;;12.60;6.50;;;20.20;74.20;;;;;;5101563;27;20039;-63
2022/05/01 08:08:40;;;;;;;13.52;6.18;;;19.90;74.00;;;;;;5091354;28;20043;-62
2022/05/01 08:11:07;;;;;;;10.63;7.10;;;20.10;72.60;;;;;;5070039;27;20039;-66
2022/05/01 08:13:33;;;;;;;12.30;6.45;;;20.20;74.10;;;;;;5123441;27;20040;-64
2022/05/01 08:15:59;;;;;;;14.95;6.35;;;20.10;72.10;;;;;;5103764;27;20034;-62
2022/05/01 08:21:09;;;;;;;10.32;6.15;;;20.10;73.90;;;;;;5084531;27;20488;-66
2022/05/01 08:23:36;;;;;;;10.35;5.93;;;20.10;73.90;;;;;;5124253;27;20046;-68
2022/05/01 08:26:03;;;;;;;12.95;6.00;;;19.90;74.00;;;;;;5124206;27;20469;-66
2022/05/01 08:28:33;;;;;;;7.53;5.85;;;20.00;74.10;;;;;;5099578;27;20043;-68
2022/05/01 08:30:59;;;;;;;13.05;6.30;;;19.90;73.40;;;;;;5096331;27;20043;-65
2022/05/01 08:33:25;;;;;;;11.90;6.45;;;19.70;73.80;;;;;;5120626;27;20039;-68
2022/05/01 08:35:51;;;;;;;10.73;6.55;;;19.90;72.50;;;;;;5113352;27;20061;-63
2022/05/01 08:38:17;;;;;;;8.77;6.93;;;19.60;73.70;;;;;;5096983;28;20086;-71
2022/05/01 08:40:45;;;;;;;11.73;6.55;;;19.80;71.10;;;;;;5116604;27;20048;-65
2022/05/01 08:43:11;;;;;;;13.07;6.93;;;;;;;;;;5075604;27;20051;-65
2022/05/01 08:45:56;;;;;;;11.65;6.82;;;19.70;74.00;;;;;;5112274;27;20051;-66
2022/05/01 08:48:27;;;;;;;9.20;6.55;;;19.70;74.20;;;;;;5114472;27;20039;-69
2022/05/01 08:50:53;;;;;;;13.73;7.82;;;19.30;73.90;;;;;;5063745;28;20051;-73
2022/05/01 08:53:19;;;;;;;25.27;8.32;;;19.50;74.00;;;;;;5080400;28;20043;-62
2022/05/01 08:55:46;;;;;;;25.00;8.35;;;19.30;72.80;;;;;;5080048;27;20199;-67
2022/05/01 08:58:14;;;;;;;12.70;7.97;;;19.50;74.00;;;;;;5116400;27;20058;-65
2022/05/01 09:00:39;;;;;;;11.07;6.90;;;19.50;74.00;;;;;;5083845;27;20043;-64
2022/05/01 09:03:06;;;;;;;9.32;7.40;;;19.40;71.10;;;;;;5083603;27;20058;-71
2022/05/01 09:05:32;;;;;;;11.43;7.55;;;;;;;;;;5117602;27;20397;-71
2022/05/01 09:07:58;;;;;;;13.23;7.00;;;19.70;74.30;;;;;;5103445;28;20051;-70
2022/05/01 09:10:32;;;;;;;12.45;7.25;;;19.50;74.40;;;;;;5096863;28;20491;-69
2022/05/01 09:12:58;;;;;;;10.60;6.80;;;19.20;74.10;;;;;;5135538;27;20077;-64
2022/05/01 09:15:40;;;;;;;11.73;6.45;;;19.40;74.30;;;;;;5135848;27;20079;-62
2022/05/01 09:18:08;;;;;;;10.55;6.38;;;19.60;71.30;;;;;;5114774;27;20035;-63
2022/05/01 09:20:39;;;;;;;12.82;6.18;;;19.60;71.90;;;;;;5135384;27;20050;-69
2022/05/01 09:23:08;;;;;;;;;;;19.60;71.80;;;;;;5118954;27;20054;-65
2022/05/01 09:25:35;;;;;;;19.92;5.97;;;19.90;74.50;;;;;;5130446;27;19920;-62
2022/05/01 09:28:18;;;;;;;9.30;5.55;;;20.00;71.40;;;;;;5099681;28;20040;-64
2022/05/01 09:30:44;;;;;;;8.88;6.53;;;20.30;74.60;;;;;;5114701;28;20035;-63
2022/05/01 09:33:20;;;;;;;10.88;5.65;;;20.10;69.90;;;;;;5113797;28;20031;-70
2022/05/01 09:35:46;;;;;;;7.75;5.20;;;20.00;71.20;;;;;;5114548;28;20055;-68
2022/05/01 09:38:15;;;;;;;9.15;5.82;;;20.10;74.40;;;;;;5112851;27;20027;-62
2022/05/01 09:40:45;;;;;;;8.02;5.90;;;20.10;74.40;;;;;;5113543;27;20039;-63
2022/05/01 09:43:43;;;;;;;10.40;5.63;;;19.80;74.20;;;;;;5114131;28;20047;-65
2022/05/01 09:46:20;;;;;;;10.73;5.45;;;20.30;74.50;;;;;;5038018;28;20056;-63
2022/05/01 09:49:04;;;;;;;7.78;4.88;;;20.10;74.40;;;;;;5022245;28;20049;-69
2022/05/01 09:51:32;;;;;;;11.48;5.72;;;20.10;74.30;;;;;;5071602;28;20032;-71
2022/05/01 09:53:58;;;;;;;9.48;5.38;;;20.20;74.30;;;;;;5054866;28;20056;-67
2022/05/01 09:56:24;;;;;;;8.75;4.82;;;20.30;74.30;;;;;;5042188;28;20084;-64
2022/05/01 09:59:00;;;;;;;8.63;5.15;;;20.50;74.30;;;;;;5026487;28;20126;-66
2022/05/01 10:01:27;;;;;;;6.63;4.63;;;20.50;71.30;;;;;;5035544;28;20041;-68
2022/05/01 10:03:54;;;;;;;11.05;5.30;;;20.30;74.00;;;;;;5033649;28;20087;-67
2022/05/01 10:06:20;;;;;;;14.15;6.68;;;20.30;74.10;;;;;;5030911;28;20053;-66
2022/05/01 10:08:46;;;;;;;10.63;5.85;;;20.00;73.40;;;;;;5033538;28;20049;-69
2022/05/01 10:11:17;;;;;;;14.43;5.70;;;20.30;73.60;;;;;;5033481;28;20154;-68
2022/05/01 10:13:44;;;;;;;13.02;5.45;;;20.20;70.60;;;;;;4999043;28;20045;-67
2022/05/01 10:16:11;;;;;;;10.82;5.30;;;;;;;;;;5024203;28;20544;-66
2022/05/01 10:18:38;;;;;;;9.40;5.53;;;20.30;73.50;;;;;;5039080;28;20047;-67
2022/05/01 10:21:08;;;;;;;9.35;5.13;;;20.10;73.40;;;;;;5030562;28;20040;-63
2022/05/01 10:23:34;;;;;;;10.93;6.13;;;20.30;73.40;;;;;;5099969;27;20206;-68
2022/05/01 10:26:13;;;;;;;9.30;5.05;;;20.10;73.30;;;;;;5124653;27;20128;-64
2022/05/01 10:28:51;;;;;;;9.75;4.90;;;20.20;73.20;;;;;;5089029;28;20480;-68
2022/05/01 10:35:03;;;;;;;8.52;5.03;;;20.20;73.20;;;;;;5113312;28;20051;-67
2022/05/01 10:38:07;;;;;;;10.05;4.97;;;20.10;72.90;;;;;;5098847;28;20052;-66
2022/05/01 10:40:33;;;;;;;;;;;20.30;69.30;;;;;;5114256;28;20101;-65
2022/05/01 10:43:02;;;;;;;9.07;5.00;;;20.20;73.00;;;;;;5097680;28;19920;-69
2022/05/01 10:45:27;;;;;;;8.40;4.57;;;20.30;73.10;;;;;;5078083;28;20111;-62
2022/05/01 10:47:56;;;;;;;21.02;6.32;;;20.30;73.20;;;;;;5100394;28;20100;-65
2022/05/01 10:50:26;;;;;;;29.13;7.35;;;20.20;73.30;;;;;;5086990;28;20548;-65
2022/05/01 10:53:05;;;;;;;27.80;6.75;;;20.40;73.30;;;;;;5104339;28;20050;-62
2022/05/01 10:55:52;;;;;;;18.52;6.35;;;20.40;71.80;;;;;;5083133;28;20413;-65
2022/05/01 10:58:19;;;;;;;20.30;6.57;;;20.10;73.50;;;;;;5104642;28;20131;-63
2022/05/01 11:00:48;;;;;;;11.65;5.20;;;20.20;73.00;;;;;;5102174;28;20075;-62
2022/05/01 11:03:28;;;;;;;8.40;5.50;;;20.10;72.80;;;;;;5083035;28;20043;-63
2022/05/01 11:06:06;;;;;;;10.23;6.40;;;20.10;73.00;;;;;;5088593;28;20097;-64
2022/05/01 11:08:36;;;;;;;13.93;6.80;;;20.20;73.40;;;;;;5091573;28;20052;-66
2022/05/01 11:11:07;;;;;;;11.30;6.28;;;19.80;73.10;;;;;;5108176;28;20100;-63
2022/05/01 11:13:36;;;;;;;9.85;5.65;;;19.90;73.20;;;;;;5100142;28;20048;-64
2022/05/01 11:16:03;;;;;;;9.25;6.32;;;19.90;73.20;;;;;;5106548;28;20047;-66
2022/05/01 11:18:52;;;;;;;9.35;6.13;;;19.80;73.30;;;;;;5096162;28;20044;-66
2022/05/01 11:21:20;;;;;;;10.25;6.18;;;19.80;68.80;;;;;;5098001;28;20440;-64
2022/05/01 11:23:57;;;;;;;16.08;6.07;;;19.70;73.50;;;;;;5102637;28;20108;-66
2022/05/01 11:26:23;;;;;;;9.55;5.50;;;19.80;73.90;;;;;;5080119;28;20036;-66
2022/05/01 11:29:13;;;;;;;10.55;5.50;;;19.80;73.70;;;;;;5081296;28;20044;-66
2022/05/01 11:31:42;;;;;;;7.45;4.43;;;19.80;73.70;;;;;;5098141;28;20044;-65
2022/05/01 11:34:19;;;;;;;10.05;5.03;;;19.50;73.70;;;;;;5096878;28;20047;-64
2022/05/01 11:36:58;;;;;;;8.10;4.97;;;19.70;73.90;;;;;;5096439;28;20504;-65
2022/05/01 11:39:49;;;;;;;8.25;4.80;;;19.70;73.80;;;;;;5079293;28;20510;-64
2022/05/01 11:42:26;;;;;;;9.63;5.10;;;19.80;74.20;;;;;;5097880;28;20055;-63
2022/05/01 11:44:53;;;;;;;8.07;4.85;;;;;;;;;;5098016;28;20128;-69
2022/05/01 11:47:19;;;;;;;7.18;4.80;;;19.70;74.20;;;;;;5095406;28;20036;-71
2022/05/01 11:49:45;;;;;;;7.45;5.07;;;19.80;74.40;;;;;;5096154;28;20040;-64
2022/05/01 11:52:12;;;;;;;11.00;5.43;;;19.40;74.40;;;;;;5097621;28;20043;-64
2022/05/01 11:54:41;;;;;;;7.35;4.90;;;19.60;74.40;;;;;;5105610;28;20055;-66
2022/05/01 12:02:39;;;;;;;8.63;6.00;;;19.70;73.90;;;;;;5108224;28;20051;-69
2022/05/01 12:05:05;;;;;;;11.63;6.63;;;19.60;73.60;;;;;;5098193;28;20117;-68
2022/05/01 12:07:31;;;;;;;8.10;6.00;;;19.50;73.90;;;;;;5098167;28;20048;-70
2022/05/01 12:09:57;;;;;;;7.13;5.35;;;19.40;73.80;;;;;;5097937;28;20047;-70
2022/05/01 12:12:27;;;;;;;8.75;5.45;;;19.40;69.20;;;;;;5097750;27;20126;-66
2022/05/01 12:14:53;;;;;;;13.00;6.40;;;19.50;73.90;;;;;;5099009;28;20047;-69
2022/05/01 12:17:21;;;;;;;11.23;5.57;;;19.50;73.30;;;;;;5123809;27;20047;-64
2022/05/01 12:19:48;;;;;;;9.55;5.68;;;19.50;74.00;;;;;;5098588;27;20051;-64
2022/05/01 12:22:16;;;;;;;11.95;5.45;;;19.40;74.30;;;;;;5108560;27;20054;-65
2022/05/01 12:24:43;;;;;;;12.27;5.93;;;19.60;73.70;;;;;;5105810;27;20051;-69
2022/05/01 12:27:09;;;;;;;9.15;5.30;;;19.50;74.30;;;;;;5089538;27;20047;-69
2022/05/01 12:29:36;;;;;;;6.63;4.53;;;19.50;74.30;;;;;;5103315;27;20051;-65
2022/05/01 12:32:08;;;;;;;11.18;5.13;;;19.60;71.20;;;;;;5083565;27;20496;-67
2022/05/01 12:34:37;;;;;;;9.60;4.88;;;19.60;74.20;;;;;;5085490;27;20039;-71
2022/05/01 12:37:10;;;;;;;13.93;5.45;;;19.80;71.30;;;;;;5087889;27;20131;-67
2022/05/01 12:39:36;;;;;;;8.65;4.95;;;19.80;74.30;;;;;;5102796;27;20055;-64
2022/05/01 12:45:09;;;;;;;8.15;5.07;;;20.00;74.60;;;;;;5106108;27;20492;-63
2022/05/01 12:51:05;;;;;;;8.93;4.78;;;20.00;74.50;;;;;;5044717;28;20048;-63
2022/05/01 12:53:36;;;;;;;7.28;4.60;;;20.20;69.90;;;;;;5005331;28;20430;-69
2022/05/01 12:56:20;;;;;;;9.77;5.72;;;20.30;71.50;;;;;;5007898;28;20055;-68
2022/05/01 12:58:46;;;;;;;9.02;4.65;;;;;;;;;;5012806;28;20084;-71
2022/05/01 13:01:32;;;;;;;9.13;4.45;;;20.10;73.30;;;;;;4995728;28;20057;-65
2022/05/01 13:03:58;;;;;;;9.52;4.75;;;;;;;;;;4995253;28;20049;-69
2022/05/01 13:06:24;;;;;;;8.32;4.82;;;;;;;;;;5011861;28;20055;-69
2022/05/01 13:08:53;;;;;;;8.57;5.03;;;20.20;70.60;;;;;;5025330;28;20046;-64
2022/05/01 13:11:33;;;;;;;9.48;5.10;;;20.30;74.60;;;;;;5022144;28;20053;-64
2022/05/01 13:14:04;;;;;;;9.15;5.28;;;20.20;74.50;;;;;;5009839;28;20109;-64
2022/05/01 13:16:32;;;;;;;9.20;4.82;;;20.20;69.80;;;;;;4995536;28;20133;-64
2022/05/01 13:19:06;;;;;;;9.10;5.05;;;20.10;74.70;;;;;;5001765;28;20472;-69
2022/05/01 13:21:33;;;;;;;11.20;5.28;;;20.10;71.30;;;;;;5023259;28;20153;-68
2022/05/01 13:24:23;;;;;;;10.68;5.30;;;20.00;71.40;;;;;;5024007;28;20507;-66
2022/05/01 13:26:49;;;;;;;8.98;4.82;;;20.00;74.40;;;;;;4925970;28;20096;-71
2022/05/01 13:29:15;;;;;;;8.85;4.15;;;;;;;;;;4972078;28;20058;-71
2022/05/01 13:31:42;;;;;;;13.43;5.53;;;20.00;71.10;;;;;;5005540;28;20787;-67
2022/05/01 13:34:09;;;;;;;8.00;4.57;;;;;;;;;;5001943;28;20046;-68
2022/05/01 13:36:35;;;;;;;8.70;4.47;;;19.50;74.40;;;;;;5007515;28;20038;-64
2022/05/01 13:39:03;;;;;;;9.02;4.72;;;19.80;74.70;;;;;;4973615;28;20077;-69
2022/05/01 13:47:10;;;;;;;8.95;4.93;;;19.40;72.30;;;;;;4970084;28;20153;-63
2022/05/01 13:49:36;;;;;;;7.97;4.32;;;20.00;73.20;;;;;;4970126;28;20065;-63
2022/05/01 13:52:03;;;;;;;7.57;4.60;;;20.00;71.80;;;;;;4970410;28;20464;-69
2022/05/01 13:54:29;;;;;;;7.93;4.47;;;;;;;;;;4992512;28;20061;-63
2022/05/01 13:56:55;;;;;;;6.88;4.18;;;19.70;74.80;;;;;;5000411;28;20129;-63
2022/05/01 13:59:22;;;;;;;6.82;3.90;;;19.60;75.00;;;;;;4990129;28;20132;-64
2022/05/01 14:01:52;;;;;;;8.88;4.00;;;;;;;;;;5005227;28;20120;-63
2022/05/01 14:04:20;;;;;;;7.65;4.07;;;19.70;72.10;;;;;;5029774;28;20434;-62
2022/05/01 14:06:46;;;;;;;6.55;3.75;;;19.70;75.00;;;;;;5027995;28;20044;-70
2022/05/01 14:09:17;;;;;;;7.95;5.00;;;19.70;74.80;;;;;;5040033;28;20033;-62
2022/05/01 14:11:43;;;;;;;8.30;4.28;;;;;;;;;;5025676;28;20574;-62
2022/05/01 14:14:10;;;;;;;8.48;4.22;;;;;;;;;;5047423;28;20053;-69
2022/05/01 14:16:38;;;;;;;9.27;4.13;;;;;;;;;;5043732;28;20091;-71
2022/05/01 14:19:04;;;;;;;11.50;4.35;;;19.50;70.90;;;;;;5035944;28;20049;-64
2022/05/01 14:21:30;;;;;;;7.68;4.18;;;19.80;72.50;;;;;;5037912;28;20043;-62
2022/05/01 14:23:56;;;;;;;8.68;4.63;;;;;;;;;;5067637;28;20479;-64
2022/05/01 14:26:22;;;;;;;9.30;4.82;;;19.60;73.60;;;;;;5089825;28;20040;-69
2022/05/01 14:28:48;;;;;;;6.80;3.75;;;;;;;;;;5069188;28;20405;-66
2022/05/01 14:31:25;;;;;;;9.95;4.60;;;19.50;71.60;;;;;;5066900;28;20044;-65
2022/05/01 14:34:09;;;;;;;11.98;4.50;;;19.60;75.20;;;;;;5070286;28;20519;-65
2022/05/01 14:36:47;;;;;;;13.20;4.43;;;19.40;75.00;;;;;;5082143;28;20044;-66
2022/05/01 14:39:15;;;;;;;10.18;4.57;;;;;;;;;;5082360;28;20161;-65
2022/05/01 14:41:51;;;;;;;6.97;4.47;;;19.40;74.70;;;;;;5079911;28;20040;-70
2022/05/01 14:44:23;;;;;;;6.65;4.57;;;19.20;74.70;;;;;;5081885;28;20107;-70
2022/05/01 14:46:57;;;;;;;12.20;4.10;;;19.60;75.00;;;;;;5064079;28;20053;-65
2022/05/01 14:49:38;;;;;;;9.75;3.67;;;19.60;74.90;;;;;;5081592;28;20125;-68
2022/05/01 14:52:11;;;;;;;7.95;3.63;;;19.50;74.90;;;;;;5083483;28;20044;-64
2022/05/01 14:54:39;;;;;;;6.53;3.97;;;19.50;74.90;;;;;;5094699;28;20047;-67
2022/05/01 14:57:12;;;;;;;7.45;4.20;;;19.30;74.80;;;;;;5120833;28;20043;-62
2022/05/01 15:08:10;;;;;;;6.50;4.18;;;19.60;75.00;;;;;;5106786;28;20043;-65
2022/05/01 15:10:38;;;;;;;10.50;4.20;;;19.40;74.80;;;;;;5114580;28;20051;-70
2022/05/01 15:13:06;;;;;;;6.97;4.40;;;19.60;74.00;;;;;;5083576;28;20096;-68
2022/05/01 15:15:51;;;;;;;7.15;3.75;;;19.40;72.50;;;;;;5081527;28;20484;-69
2022/05/01 15:18:21;;;;;;;6.15;3.47;;;19.60;75.40;;;;;;5095712;28;20497;-68
2022/05/01 15:21:17;;;;;;;6.63;3.70;;;19.70;72.50;;;;;;5093515;28;20075;-71
2022/05/01 15:23:53;;;;;;;6.20;3.17;;;19.40;75.50;;;;;;5071867;28;20470;-71
2022/05/01 15:26:21;;;;;;;7.15;3.15;;;19.20;75.50;;;;;;5061922;28;20050;-70
2022/05/01 15:28:47;;;;;;;8.48;3.20;;;19.40;75.50;;;;;;5088444;28;20109;-71
2022/05/01 15:31:15;;;;;;;6.28;3.22;;;19.30;72.30;;;;;;5070136;28;20051;-66
2022/05/01 15:33:43;;;;;;;8.00;3.22;;;19.30;75.60;;;;;;5080418;28;20043;-64
2022/05/01 15:36:18;;;;;;;7.60;3.38;;;19.50;76.00;;;;;;5072506;28;20040;-66
2022/05/01 15:38:56;;;;;;;8.57;3.20;;;19.60;71.90;;;;;;5095722;28;20086;-70
2022/05/01 15:41:55;;;;;;;6.88;3.00;;;19.20;76.00;;;;;;5087572;27;20089;-67
2022/05/01 15:44:23;;;;;;;6.82;2.70;;;19.00;73.50;;;;;;5090197;27;20051;-64
2022/05/01 15:46:56;;;;;;;6.10;3.15;;;19.30;73.40;;;;;;5082772;28;20047;-66
2022/05/01 15:55:03;;;;;;;5.85;3.08;;;19.30;76.10;;;;;;5103773;27;20056;-64
2022/05/01 15:57:31;;;;;;;6.68;3.38;;;19.20;72.40;;;;;;5086836;27;20056;-66
2022/05/01 16:00:03;;;;;;;5.75;2.92;;;18.80;75.90;;;;;;5104307;27;20039;-63
2022/05/01 16:02:29;;;;;;;9.00;3.07;;;19.00;72.10;;;;;;5121057;27;20050;-66
2022/05/01 16:04:55;;;;;;;9.07;3.13;;;19.00;76.30;;;;;;5089192;27;20471;-67
2022/05/01 16:07:27;;;;;;;5.63;2.70;;;19.10;75.40;;;;;;5108970;27;20047;-67
2022/05/01 16:09:58;;;;;;;9.80;2.90;;;19.10;76.60;;;;;;5128817;27;20043;-70
2022/05/01 16:12:44;;;;;;;5.95;2.60;;;19.10;76.40;;;;;;5091704;27;20049;-70
2022/05/01 16:15:12;;;;;;;6.78;2.63;;;19.20;75.00;;;;;;5108614;27;20065;-70
2022/05/01 16:17:38;;;;;;;9.18;3.08;;;;;;;;;;5083296;27;20043;-66
2022/05/01 16:20:09;;;;;;;5.78;2.60;;;19.10;76.60;;;;;;5117553;27;20043;-66
2022/05/01 16:22:57;;;;;;;6.57;2.60;;;19.40;76.60;;;;;;5074362;27;20074;-66
2022/05/01 16:25:23;;;;;;;4.75;2.75;;;19.30;72.80;;;;;;5089594;27;20051;-67